sensor_id;sensor_type;location;lat;lon;timestamp;P1;P2;P0
62054;PMS5003;48653;51.742;-1.256;2023-06-14T00:01:51;14;14;
62054;PMS5003;48653;51.742;-1.256;2023-06-14T00:04:17;17;17;
62054;PMS5003;48653;51.742;-1.256;2023-06-14T00:06:42;19;17;
62054;PMS5003;48653;51.742;-1.256;2023-06-14T00:09:08;16;15;
62054;PMS5003;48653;51.742;-1.256;2023-06-14T00:11:33;17;17;
62054;PMS5003;48653;51.742;-1.256;2023-06-14T00:13:58;15;14;
62054;PMS5003;48653;51.742;-1.256;2023-06-14T00:16:24;15;13;
62054;PMS5003;48653;51.742;-1.256;2023-06-14T00:18:49;17;15;
62054;PMS5003;48653;51.742;-1.256;2023-06-14T00:21:15;15;15;
62054;PMS5003;48653;51.742;-1.256;2023-06-14T00:23:41;15;13;
62054;PMS5003;48653;51.742;-1.256;2023-06-14T00:26:06;17;15;
62054;PMS5003;48653;51.742;-1.256;2023-06-14T00:28:32;15;15;
62054;PMS5003;48653;51.742;-1.256;2023-06-14T00:30:57;14;13;
62054;PMS5003;48653;51.742;-1.256;2023-06-14T00:33:23;14;13;
62054;PMS5003;48653;51.742;-1.256;2023-06-14T00:35:48;17;16;
62054;PMS5003;48653;51.742;-1.256;2023-06-14T00:38:13;12;12;
62054;PMS5003;48653;51.742;-1.256;2023-06-14T00:40:39;17;15;
62054;PMS5003;48653;51.742;-1.256;2023-06-14T00:43:04;16;13;
62054;PMS5003;48653;51.742;-1.256;2023-06-14T00:45:29;16;15;
62054;PMS5003;48653;51.742;-1.256;2023-06-14T00:47:54;13;13;
62054;PMS5003;48653;51.742;-1.256;2023-06-14T00:50:20;15;13;
62054;PMS5003;48653;51.742;-1.256;2023-06-14T00:52:45;15;14;
62054;PMS5003;48653;51.742;-1.256;2023-06-14T00:55:10;16;11;
62054;PMS5003;48653;51.742;-1.256;2023-06-14T00:57:36;13;12;
62054;PMS5003;48653;51.742;-1.256;2023-06-14T01:00:03;11;10;
62054;PMS5003;48653;51.742;-1.256;2023-06-14T01:02:27;12;11;
62054;PMS5003;48653;51.742;-1.256;2023-06-14T01:04:53;17;15;
62054;PMS5003;48653;51.742;-1.256;2023-06-14T01:07:21;12;11;
62054;PMS5003;48653;51.742;-1.256;2023-06-14T01:09:46;14;12;
62054;PMS5003;48653;51.742;-1.256;2023-06-14T01:12:11;9;9;
62054;PMS5003;48653;51.742;-1.256;2023-06-14T01:14:33;11;10;
62054;PMS5003;48653;51.742;-1.256;2023-06-14T01:16:59;9;7;
62054;PMS5003;48653;51.742;-1.256;2023-06-14T01:19:24;12;10;
62054;PMS5003;48653;51.742;-1.256;2023-06-14T01:21:49;14;11;
62054;PMS5003;48653;51.742;-1.256;2023-06-14T01:24:14;13;11;
62054;PMS5003;48653;51.742;-1.256;2023-06-14T01:26:39;11;9;
62054;PMS5003;48653;51.742;-1.256;2023-06-14T01:29:05;14;14;
62054;PMS5003;48653;51.742;-1.256;2023-06-14T01:31:30;13;10;
62054;PMS5003;48653;51.742;-1.256;2023-06-14T01:33:55;9;9;
62054;PMS5003;48653;51.742;-1.256;2023-06-14T01:36:21;10;10;
62054;PMS5003;48653;51.742;-1.256;2023-06-14T01:38:46;12;10;
62054;PMS5003;48653;51.742;-1.256;2023-06-14T01:41:12;14;13;
62054;PMS5003;48653;51.742;-1.256;2023-06-14T01:43:37;9;9;
62054;PMS5003;48653;51.742;-1.256;2023-06-14T01:46:02;11;11;
62054;PMS5003;48653;51.742;-1.256;2023-06-14T01:48:27;12;12;
62054;PMS5003;48653;51.742;-1.256;2023-06-14T01:50:52;11;11;
62054;PMS5003;48653;51.742;-1.256;2023-06-14T01:53:18;8;8;
62054;PMS5003;48653;51.742;-1.256;2023-06-14T01:55:43;11;11;
62054;PMS5003;48653;51.742;-1.256;2023-06-14T01:58:08;9;7;
62054;PMS5003;48653;51.742;-1.256;2023-06-14T02:00:33;9;9;
62054;PMS5003;48653;51.742;-1.256;2023-06-14T02:02:59;13;11;
62054;PMS5003;48653;51.742;-1.256;2023-06-14T02:05:24;13;11;
62054;PMS5003;48653;51.742;-1.256;2023-06-14T02:07:49;12;10;
62054;PMS5003;48653;51.742;-1.256;2023-06-14T02:10:14;11;8;
62054;PMS5003;48653;51.742;-1.256;2023-06-14T02:12:39;14;13;
62054;PMS5003;48653;51.742;-1.256;2023-06-14T02:15:05;10;10;
62054;PMS5003;48653;51.742;-1.256;2023-06-14T02:17:30;10;10;
62054;PMS5003;48653;51.742;-1.256;2023-06-14T02:19:55;11;10;
62054;PMS5003;48653;51.742;-1.256;2023-06-14T02:22:21;10;8;
62054;PMS5003;48653;51.742;-1.256;2023-06-14T02:24:45;9;9;
62054;PMS5003;48653;51.742;-1.256;2023-06-14T02:27:11;16;12;
62054;PMS5003;48653;51.742;-1.256;2023-06-14T02:29:36;13;11;
62054;PMS5003;48653;51.742;-1.256;2023-06-14T02:32:01;10;10;
62054;PMS5003;48653;51.742;-1.256;2023-06-14T02:34:26;10;10;
62054;PMS5003;48653;51.742;-1.256;2023-06-14T02:36:52;13;12;
62054;PMS5003;48653;51.742;-1.256;2023-06-14T02:39:17;12;8;
62054;PMS5003;48653;51.742;-1.256;2023-06-14T02:41:42;14;12;
62054;PMS5003;48653;51.742;-1.256;2023-06-14T02:44:09;11;9;
62054;PMS5003;48653;51.742;-1.256;2023-06-14T02:46:33;13;10;
62054;PMS5003;48653;51.742;-1.256;2023-06-14T02:48:58;12;11;
62054;PMS5003;48653;51.742;-1.256;2023-06-14T02:51:23;13;13;
62054;PMS5003;48653;51.742;-1.256;2023-06-14T02:53:48;13;10;
62054;PMS5003;48653;51.742;-1.256;2023-06-14T02:56:13;11;9;
62054;PMS5003;48653;51.742;-1.256;2023-06-14T02:58:38;12;11;
62054;PMS5003;48653;51.742;-1.256;2023-06-14T03:01:04;11;10;
62054;PMS5003;48653;51.742;-1.256;2023-06-14T03:03:29;10;10;
62054;PMS5003;48653;51.742;-1.256;2023-06-14T03:05:54;9;9;
62054;PMS5003;48653;51.742;-1.256;2023-06-14T03:08:20;14;12;
62054;PMS5003;48653;51.742;-1.256;2023-06-14T03:10:45;9;8;
62054;PMS5003;48653;51.742;-1.256;2023-06-14T03:13:10;16;13;
62054;PMS5003;48653;51.742;-1.256;2023-06-14T03:15:36;11;11;
62054;PMS5003;48653;51.742;-1.256;2023-06-14T03:18:01;13;11;
62054;PMS5003;48653;51.742;-1.256;2023-06-14T03:20:26;10;10;
62054;PMS5003;48653;51.742;-1.256;2023-06-14T03:22:51;11;11;
62054;PMS5003;48653;51.742;-1.256;2023-06-14T03:25:17;18;13;
62054;PMS5003;48653;51.742;-1.256;2023-06-14T03:27:43;14;11;
62054;PMS5003;48653;51.742;-1.256;2023-06-14T03:30:09;14;12;
62054;PMS5003;48653;51.742;-1.256;2023-06-14T03:32:34;14;13;
62054;PMS5003;48653;51.742;-1.256;2023-06-14T03:34:59;12;11;
62054;PMS5003;48653;51.742;-1.256;2023-06-14T03:37:24;13;12;
62054;PMS5003;48653;51.742;-1.256;2023-06-14T03:39:49;13;11;
62054;PMS5003;48653;51.742;-1.256;2023-06-14T03:42:15;15;12;
62054;PMS5003;48653;51.742;-1.256;2023-06-14T03:44:40;11;9;
62054;PMS5003;48653;51.742;-1.256;2023-06-14T03:47:06;16;13;
62054;PMS5003;48653;51.742;-1.256;2023-06-14T03:49:31;14;13;
62054;PMS5003;48653;51.742;-1.256;2023-06-14T03:51:56;13;11;
62054;PMS5003;48653;51.742;-1.256;2023-06-14T03:54:21;12;12;
62054;PMS5003;48653;51.742;-1.256;2023-06-14T03:56:47;10;10;
62054;PMS5003;48653;51.742;-1.256;2023-06-14T03:59:12;13;13;
62054;PMS5003;48653;51.742;-1.256;2023-06-14T04:01:37;16;12;
62054;PMS5003;48653;51.742;-1.256;2023-06-14T04:04:02;16;15;
62054;PMS5003;48653;51.742;-1.256;2023-06-14T04:06:27;20;16;
62054;PMS5003;48653;51.742;-1.256;2023-06-14T04:08:53;13;12;
62054;PMS5003;48653;51.742;-1.256;2023-06-14T04:11:19;14;13;
62054;PMS5003;48653;51.742;-1.256;2023-06-14T04:13:44;13;12;
62054;PMS5003;48653;51.742;-1.256;2023-06-14T04:16:10;13;12;
62054;PMS5003;48653;51.742;-1.256;2023-06-14T04:18:35;16;16;
62054;PMS5003;48653;51.742;-1.256;2023-06-14T04:21:00;14;12;
62054;PMS5003;48653;51.742;-1.256;2023-06-14T04:23:25;10;10;
62054;PMS5003;48653;51.742;-1.256;2023-06-14T04:25:51;19;15;
62054;PMS5003;48653;51.742;-1.256;2023-06-14T04:28:16;19;16;
62054;PMS5003;48653;51.742;-1.256;2023-06-14T04:30:41;15;12;
62054;PMS5003;48653;51.742;-1.256;2023-06-14T04:33:07;18;13;
62054;PMS5003;48653;51.742;-1.256;2023-06-14T04:35:32;13;13;
62054;PMS5003;48653;51.742;-1.256;2023-06-14T04:37:57;16;14;
62054;PMS5003;48653;51.742;-1.256;2023-06-14T04:40:23;12;11;
62054;PMS5003;48653;51.742;-1.256;2023-06-14T04:42:49;12;12;
62054;PMS5003;48653;51.742;-1.256;2023-06-14T04:45:14;10;10;
62054;PMS5003;48653;51.742;-1.256;2023-06-14T04:47:39;15;15;
62054;PMS5003;48653;51.742;-1.256;2023-06-14T04:50:05;15;13;
62054;PMS5003;48653;51.742;-1.256;2023-06-14T04:52:30;12;11;
62054;PMS5003;48653;51.742;-1.256;2023-06-14T04:54:55;13;13;
62054;PMS5003;48653;51.742;-1.256;2023-06-14T04:57:21;17;14;
62054;PMS5003;48653;51.742;-1.256;2023-06-14T04:59:47;15;15;
62054;PMS5003;48653;51.742;-1.256;2023-06-14T05:02:12;17;15;
62054;PMS5003;48653;51.742;-1.256;2023-06-14T05:04:37;18;14;
62054;PMS5003;48653;51.742;-1.256;2023-06-14T05:07:03;15;15;
62054;PMS5003;48653;51.742;-1.256;2023-06-14T05:09:28;15;15;
62054;PMS5003;48653;51.742;-1.256;2023-06-14T05:11:54;17;13;
62054;PMS5003;48653;51.742;-1.256;2023-06-14T05:14:20;13;13;
62054;PMS5003;48653;51.742;-1.256;2023-06-14T05:16:45;19;17;
62054;PMS5003;48653;51.742;-1.256;2023-06-14T05:19:10;14;12;
62054;PMS5003;48653;51.742;-1.256;2023-06-14T05:21:36;16;11;
62054;PMS5003;48653;51.742;-1.256;2023-06-14T05:24:01;18;16;
62054;PMS5003;48653;51.742;-1.256;2023-06-14T05:26:27;15;15;
62054;PMS5003;48653;51.742;-1.256;2023-06-14T05:28:52;19;17;
62054;PMS5003;48653;51.742;-1.256;2023-06-14T05:31:18;20;14;
62054;PMS5003;48653;51.742;-1.256;2023-06-14T05:33:44;19;16;
62054;PMS5003;48653;51.742;-1.256;2023-06-14T05:36:09;15;15;
62054;PMS5003;48653;51.742;-1.256;2023-06-14T05:38:35;15;14;
62054;PMS5003;48653;51.742;-1.256;2023-06-14T05:41:00;18;17;
62054;PMS5003;48653;51.742;-1.256;2023-06-14T05:43:25;17;16;
62054;PMS5003;48653;51.742;-1.256;2023-06-14T05:45:51;18;15;
62054;PMS5003;48653;51.742;-1.256;2023-06-14T05:48:17;13;13;
62054;PMS5003;48653;51.742;-1.256;2023-06-14T05:50:42;18;15;
62054;PMS5003;48653;51.742;-1.256;2023-06-14T05:53:08;18;15;
62054;PMS5003;48653;51.742;-1.256;2023-06-14T05:55:33;16;14;
62054;PMS5003;48653;51.742;-1.256;2023-06-14T05:57:58;17;13;
62054;PMS5003;48653;51.742;-1.256;2023-06-14T06:00:23;14;12;
62054;PMS5003;48653;51.742;-1.256;2023-06-14T06:02:48;20;15;
62054;PMS5003;48653;51.742;-1.256;2023-06-14T06:05:13;12;12;
62054;PMS5003;48653;51.742;-1.256;2023-06-14T06:07:38;17;14;
62054;PMS5003;48653;51.742;-1.256;2023-06-14T06:10:04;15;15;
62054;PMS5003;48653;51.742;-1.256;2023-06-14T06:12:29;13;10;
62054;PMS5003;48653;51.742;-1.256;2023-06-14T06:14:54;13;12;
62054;PMS5003;48653;51.742;-1.256;2023-06-14T06:17:20;11;11;
62054;PMS5003;48653;51.742;-1.256;2023-06-14T06:19:45;17;14;
62054;PMS5003;48653;51.742;-1.256;2023-06-14T06:22:11;15;15;
62054;PMS5003;48653;51.742;-1.256;2023-06-14T06:24:36;13;13;
62054;PMS5003;48653;51.742;-1.256;2023-06-14T06:27:01;17;16;
62054;PMS5003;48653;51.742;-1.256;2023-06-14T06:29:26;14;12;
62054;PMS5003;48653;51.742;-1.256;2023-06-14T06:31:51;16;14;
62054;PMS5003;48653;51.742;-1.256;2023-06-14T06:34:17;14;12;
62054;PMS5003;48653;51.742;-1.256;2023-06-14T06:36:43;18;15;
62054;PMS5003;48653;51.742;-1.256;2023-06-14T06:39:08;17;13;
62054;PMS5003;48653;51.742;-1.256;2023-06-14T06:41:33;12;12;
62054;PMS5003;48653;51.742;-1.256;2023-06-14T06:43:58;16;14;
62054;PMS5003;48653;51.742;-1.256;2023-06-14T06:46:24;12;12;
62054;PMS5003;48653;51.742;-1.256;2023-06-14T06:48:49;13;11;
62054;PMS5003;48653;51.742;-1.256;2023-06-14T06:51:14;14;13;
62054;PMS5003;48653;51.742;-1.256;2023-06-14T06:53:41;12;11;
62054;PMS5003;48653;51.742;-1.256;2023-06-14T06:56:05;14;12;
62054;PMS5003;48653;51.742;-1.256;2023-06-14T06:58:30;13;13;
62054;PMS5003;48653;51.742;-1.256;2023-06-14T07:00:55;15;13;
62054;PMS5003;48653;51.742;-1.256;2023-06-14T07:03:20;15;12;
62054;PMS5003;48653;51.742;-1.256;2023-06-14T07:05:46;14;11;
62054;PMS5003;48653;51.742;-1.256;2023-06-14T07:08:11;16;14;
62054;PMS5003;48653;51.742;-1.256;2023-06-14T07:10:36;12;10;
62054;PMS5003;48653;51.742;-1.256;2023-06-14T07:13:02;17;12;
62054;PMS5003;48653;51.742;-1.256;2023-06-14T07:15:27;14;14;
62054;PMS5003;48653;51.742;-1.256;2023-06-14T07:17:53;17;13;
62054;PMS5003;48653;51.742;-1.256;2023-06-14T07:20:18;10;10;
62054;PMS5003;48653;51.742;-1.256;2023-06-14T07:22:43;13;12;
62054;PMS5003;48653;51.742;-1.256;2023-06-14T07:25:08;12;12;
62054;PMS5003;48653;51.742;-1.256;2023-06-14T07:27:34;10;8;
62054;PMS5003;48653;51.742;-1.256;2023-06-14T07:30:00;11;10;
62054;PMS5003;48653;51.742;-1.256;2023-06-14T07:32:25;13;11;
62054;PMS5003;48653;51.742;-1.256;2023-06-14T07:34:50;12;10;
62054;PMS5003;48653;51.742;-1.256;2023-06-14T07:37:15;10;10;
62054;PMS5003;48653;51.742;-1.256;2023-06-14T07:39:40;11;9;
62054;PMS5003;48653;51.742;-1.256;2023-06-14T07:42:06;11;11;
62054;PMS5003;48653;51.742;-1.256;2023-06-14T07:44:30;10;10;
62054;PMS5003;48653;51.742;-1.256;2023-06-14T07:46:56;11;10;
62054;PMS5003;48653;51.742;-1.256;2023-06-14T07:49:21;15;14;
62054;PMS5003;48653;51.742;-1.256;2023-06-14T07:51:46;11;11;
62054;PMS5003;48653;51.742;-1.256;2023-06-14T07:54:11;11;8;
62054;PMS5003;48653;51.742;-1.256;2023-06-14T07:56:36;13;9;
62054;PMS5003;48653;51.742;-1.256;2023-06-14T07:59:01;15;9;
62054;PMS5003;48653;51.742;-1.256;2023-06-14T08:01:26;9;9;
62054;PMS5003;48653;51.742;-1.256;2023-06-14T08:03:51;9;8;
62054;PMS5003;48653;51.742;-1.256;2023-06-14T08:06:16;15;11;
62054;PMS5003;48653;51.742;-1.256;2023-06-14T08:08:41;8;8;
62054;PMS5003;48653;51.742;-1.256;2023-06-14T08:11:07;10;10;
62054;PMS5003;48653;51.742;-1.256;2023-06-14T08:13:32;13;11;
62054;PMS5003;48653;51.742;-1.256;2023-06-14T08:15:58;8;8;
62054;PMS5003;48653;51.742;-1.256;2023-06-14T08:18:23;15;10;
62054;PMS5003;48653;51.742;-1.256;2023-06-14T08:20:48;11;11;
62054;PMS5003;48653;51.742;-1.256;2023-06-14T08:23:13;8;8;
62054;PMS5003;48653;51.742;-1.256;2023-06-14T08:25:38;8;8;
62054;PMS5003;48653;51.742;-1.256;2023-06-14T08:28:04;12;9;
62054;PMS5003;48653;51.742;-1.256;2023-06-14T08:30:29;11;11;
62054;PMS5003;48653;51.742;-1.256;2023-06-14T08:32:54;10;7;
62054;PMS5003;48653;51.742;-1.256;2023-06-14T08:35:19;10;10;
62054;PMS5003;48653;51.742;-1.256;2023-06-14T08:37:44;8;8;
62054;PMS5003;48653;51.742;-1.256;2023-06-14T08:40:16;10;8;
62054;PMS5003;48653;51.742;-1.256;2023-06-14T08:42:34;9;8;
62054;PMS5003;48653;51.742;-1.256;2023-06-14T08:44:59;10;10;
62054;PMS5003;48653;51.742;-1.256;2023-06-14T08:47:25;8;8;
62054;PMS5003;48653;51.742;-1.256;2023-06-14T08:49:50;8;7;
62054;PMS5003;48653;51.742;-1.256;2023-06-14T08:52:15;13;10;
62054;PMS5003;48653;51.742;-1.256;2023-06-14T08:54:40;10;10;
62054;PMS5003;48653;51.742;-1.256;2023-06-14T08:57:06;10;10;
62054;PMS5003;48653;51.742;-1.256;2023-06-14T08:59:31;13;9;
62054;PMS5003;48653;51.742;-1.256;2023-06-14T09:01:56;10;9;
62054;PMS5003;48653;51.742;-1.256;2023-06-14T09:04:21;12;9;
62054;PMS5003;48653;51.742;-1.256;2023-06-14T09:06:46;8;8;
62054;PMS5003;48653;51.742;-1.256;2023-06-14T09:09:11;11;11;
62054;PMS5003;48653;51.742;-1.256;2023-06-14T09:11:36;7;7;
62054;PMS5003;48653;51.742;-1.256;2023-06-14T09:14:01;10;8;
62054;PMS5003;48653;51.742;-1.256;2023-06-14T09:16:26;12;9;
62054;PMS5003;48653;51.742;-1.256;2023-06-14T09:18:52;12;10;
62054;PMS5003;48653;51.742;-1.256;2023-06-14T09:21:17;8;8;
62054;PMS5003;48653;51.742;-1.256;2023-06-14T09:23:43;11;9;
62054;PMS5003;48653;51.742;-1.256;2023-06-14T09:26:08;11;8;
62054;PMS5003;48653;51.742;-1.256;2023-06-14T09:28:32;14;10;
62054;PMS5003;48653;51.742;-1.256;2023-06-14T09:30:58;12;10;
62054;PMS5003;48653;51.742;-1.256;2023-06-14T09:33:25;10;10;
62054;PMS5003;48653;51.742;-1.256;2023-06-14T09:35:51;12;12;
62054;PMS5003;48653;51.742;-1.256;2023-06-14T09:38:14;9;8;
62054;PMS5003;48653;51.742;-1.256;2023-06-14T09:40:39;11;11;
62054;PMS5003;48653;51.742;-1.256;2023-06-14T09:43:05;9;9;
62054;PMS5003;48653;51.742;-1.256;2023-06-14T09:45:30;12;10;
62054;PMS5003;48653;51.742;-1.256;2023-06-14T09:47:55;12;12;
62054;PMS5003;48653;51.742;-1.256;2023-06-14T09:50:20;10;9;
62054;PMS5003;48653;51.742;-1.256;2023-06-14T09:52:45;9;9;
62054;PMS5003;48653;51.742;-1.256;2023-06-14T09:55:12;9;9;
62054;PMS5003;48653;51.742;-1.256;2023-06-14T09:57:36;8;8;
62054;PMS5003;48653;51.742;-1.256;2023-06-14T10:00:01;12;12;
62054;PMS5003;48653;51.742;-1.256;2023-06-14T10:02:26;12;11;
62054;PMS5003;48653;51.742;-1.256;2023-06-14T10:04:53;11;11;
62054;PMS5003;48653;51.742;-1.256;2023-06-14T10:07:19;9;9;
62054;PMS5003;48653;51.742;-1.256;2023-06-14T10:09:41;14;10;
62054;PMS5003;48653;51.742;-1.256;2023-06-14T10:12:07;10;10;
62054;PMS5003;48653;51.742;-1.256;2023-06-14T10:14:32;12;12;
62054;PMS5003;48653;51.742;-1.256;2023-06-14T10:16:59;13;9;
62054;PMS5003;48653;51.742;-1.256;2023-06-14T10:19:23;10;10;
62054;PMS5003;48653;51.742;-1.256;2023-06-14T10:21:50;10;10;
62054;PMS5003;48653;51.742;-1.256;2023-06-14T10:24:12;11;11;
62054;PMS5003;48653;51.742;-1.256;2023-06-14T10:26:39;10;10;
62054;PMS5003;48653;51.742;-1.256;2023-06-14T10:29:07;14;13;
62054;PMS5003;48653;51.742;-1.256;2023-06-14T10:33:56;11;10;
62054;PMS5003;48653;51.742;-1.256;2023-06-14T10:36:24;10;9;
62054;PMS5003;48653;51.742;-1.256;2023-06-14T10:38:43;11;10;
62054;PMS5003;48653;51.742;-1.256;2023-06-14T10:41:08;11;11;
62054;PMS5003;48653;51.742;-1.256;2023-06-14T10:43:34;12;9;
62054;PMS5003;48653;51.742;-1.256;2023-06-14T10:48:29;9;8;
62054;PMS5003;48653;51.742;-1.256;2023-06-14T10:50:53;12;10;
62054;PMS5003;48653;51.742;-1.256;2023-06-14T10:55:40;12;11;
62054;PMS5003;48653;51.742;-1.256;2023-06-14T10:58:05;14;12;
62054;PMS5003;48653;51.742;-1.256;2023-06-14T11:00:30;14;12;
62054;PMS5003;48653;51.742;-1.256;2023-06-14T11:05:23;12;12;
62054;PMS5003;48653;51.742;-1.256;2023-06-14T11:07:48;13;12;
62054;PMS5003;48653;51.742;-1.256;2023-06-14T11:10:14;17;14;
62054;PMS5003;48653;51.742;-1.256;2023-06-14T11:12:37;12;12;
62054;PMS5003;48653;51.742;-1.256;2023-06-14T11:15:02;13;11;
62054;PMS5003;48653;51.742;-1.256;2023-06-14T11:17:27;10;9;
62054;PMS5003;48653;51.742;-1.256;2023-06-14T11:22:17;13;13;
62054;PMS5003;48653;51.742;-1.256;2023-06-14T11:24:42;13;13;
62054;PMS5003;48653;51.742;-1.256;2023-06-14T11:27:08;14;11;
62054;PMS5003;48653;51.742;-1.256;2023-06-14T11:29:33;9;9;
62054;PMS5003;48653;51.742;-1.256;2023-06-14T11:31:59;14;13;
62054;PMS5003;48653;51.742;-1.256;2023-06-14T11:34:24;12;12;
62054;PMS5003;48653;51.742;-1.256;2023-06-14T11:36:49;10;9;
62054;PMS5003;48653;51.742;-1.256;2023-06-14T11:39:15;11;11;
62054;PMS5003;48653;51.742;-1.256;2023-06-14T11:41:40;12;10;
62054;PMS5003;48653;51.742;-1.256;2023-06-14T11:44:05;18;15;
62054;PMS5003;48653;51.742;-1.256;2023-06-14T11:46:31;16;13;
62054;PMS5003;48653;51.742;-1.256;2023-06-14T11:48:56;13;12;
62054;PMS5003;48653;51.742;-1.256;2023-06-14T11:51:21;12;12;
62054;PMS5003;48653;51.742;-1.256;2023-06-14T11:53:46;16;13;
62054;PMS5003;48653;51.742;-1.256;2023-06-14T11:56:11;13;13;
62054;PMS5003;48653;51.742;-1.256;2023-06-14T11:58:36;13;11;
62054;PMS5003;48653;51.742;-1.256;2023-06-14T12:01:03;12;11;
62054;PMS5003;48653;51.742;-1.256;2023-06-14T12:03:26;11;11;
62054;PMS5003;48653;51.742;-1.256;2023-06-14T12:08:16;16;14;
62054;PMS5003;48653;51.742;-1.256;2023-06-14T12:10:42;16;16;
62054;PMS5003;48653;51.742;-1.256;2023-06-14T12:13:07;17;17;
62054;PMS5003;48653;51.742;-1.256;2023-06-14T12:15:32;15;15;
62054;PMS5003;48653;51.742;-1.256;2023-06-14T12:17:57;15;14;
62054;PMS5003;48653;51.742;-1.256;2023-06-14T12:20:28;17;15;
62054;PMS5003;48653;51.742;-1.256;2023-06-14T12:22:50;18;17;
62054;PMS5003;48653;51.742;-1.256;2023-06-14T12:27:39;15;15;
62054;PMS5003;48653;51.742;-1.256;2023-06-14T12:30:04;15;15;
62054;PMS5003;48653;51.742;-1.256;2023-06-14T12:32:29;15;14;
62054;PMS5003;48653;51.742;-1.256;2023-06-14T12:34:54;16;14;
62054;PMS5003;48653;51.742;-1.256;2023-06-14T12:37:20;15;15;
62054;PMS5003;48653;51.742;-1.256;2023-06-14T12:39:45;15;15;
62054;PMS5003;48653;51.742;-1.256;2023-06-14T12:42:10;14;14;
62054;PMS5003;48653;51.742;-1.256;2023-06-14T12:44:35;17;16;
62054;PMS5003;48653;51.742;-1.256;2023-06-14T12:47:00;16;15;
62054;PMS5003;48653;51.742;-1.256;2023-06-14T12:49:26;19;17;
62054;PMS5003;48653;51.742;-1.256;2023-06-14T12:51:51;18;14;
62054;PMS5003;48653;51.742;-1.256;2023-06-14T12:54:16;17;17;
62054;PMS5003;48653;51.742;-1.256;2023-06-14T12:56:41;17;17;
62054;PMS5003;48653;51.742;-1.256;2023-06-14T12:59:06;14;14;
62054;PMS5003;48653;51.742;-1.256;2023-06-14T13:01:31;17;17;
62054;PMS5003;48653;51.742;-1.256;2023-06-14T13:03:56;19;15;
62054;PMS5003;48653;51.742;-1.256;2023-06-14T13:06:21;19;18;
62054;PMS5003;48653;51.742;-1.256;2023-06-14T13:08:47;20;18;
62054;PMS5003;48653;51.742;-1.256;2023-06-14T13:11:12;20;19;
62054;PMS5003;48653;51.742;-1.256;2023-06-14T13:13:37;16;16;
62054;PMS5003;48653;51.742;-1.256;2023-06-14T13:16:02;16;16;
62054;PMS5003;48653;51.742;-1.256;2023-06-14T13:18:28;14;14;
62054;PMS5003;48653;51.742;-1.256;2023-06-14T13:20:54;18;17;
62054;PMS5003;48653;51.742;-1.256;2023-06-14T13:23:19;18;18;
62054;PMS5003;48653;51.742;-1.256;2023-06-14T13:25:44;19;18;
62054;PMS5003;48653;51.742;-1.256;2023-06-14T13:28:10;24;17;
62054;PMS5003;48653;51.742;-1.256;2023-06-14T13:30:35;16;16;
62054;PMS5003;48653;51.742;-1.256;2023-06-14T13:33:00;18;18;
62054;PMS5003;48653;51.742;-1.256;2023-06-14T13:35:26;17;17;
62054;PMS5003;48653;51.742;-1.256;2023-06-14T13:37:51;16;16;
62054;PMS5003;48653;51.742;-1.256;2023-06-14T13:40:16;15;13;
62054;PMS5003;48653;51.742;-1.256;2023-06-14T13:42:41;16;15;
62054;PMS5003;48653;51.742;-1.256;2023-06-14T13:45:07;16;15;
62054;PMS5003;48653;51.742;-1.256;2023-06-14T13:47:32;17;17;
62054;PMS5003;48653;51.742;-1.256;2023-06-14T13:49:57;18;16;
62054;PMS5003;48653;51.742;-1.256;2023-06-14T13:52:22;16;16;
62054;PMS5003;48653;51.742;-1.256;2023-06-14T13:54:47;16;15;
62054;PMS5003;48653;51.742;-1.256;2023-06-14T13:57:13;19;17;
62054;PMS5003;48653;51.742;-1.256;2023-06-14T13:59:38;18;18;
62054;PMS5003;48653;51.742;-1.256;2023-06-14T14:02:04;19;17;
62054;PMS5003;48653;51.742;-1.256;2023-06-14T14:04:30;18;17;
62054;PMS5003;48653;51.742;-1.256;2023-06-14T14:06:55;19;17;
62054;PMS5003;48653;51.742;-1.256;2023-06-14T14:09:20;20;16;
62054;PMS5003;48653;51.742;-1.256;2023-06-14T14:11:45;19;19;
62054;PMS5003;48653;51.742;-1.256;2023-06-14T14:14:11;19;19;
62054;PMS5003;48653;51.742;-1.256;2023-06-14T14:16:37;21;21;
62054;PMS5003;48653;51.742;-1.256;2023-06-14T14:19:02;20;19;
62054;PMS5003;48653;51.742;-1.256;2023-06-14T14:21:27;20;18;
62054;PMS5003;48653;51.742;-1.256;2023-06-14T14:23:53;15;15;
62054;PMS5003;48653;51.742;-1.256;2023-06-14T14:26:18;20;16;
62054;PMS5003;48653;51.742;-1.256;2023-06-14T14:28:44;17;17;
62054;PMS5003;48653;51.742;-1.256;2023-06-14T14:31:10;19;18;
62054;PMS5003;48653;51.742;-1.256;2023-06-14T14:33:35;24;22;
62054;PMS5003;48653;51.742;-1.256;2023-06-14T14:36:00;16;16;
62054;PMS5003;48653;51.742;-1.256;2023-06-14T14:38:26;19;19;
62054;PMS5003;48653;51.742;-1.256;2023-06-14T14:40:51;18;18;
62054;PMS5003;48653;51.742;-1.256;2023-06-14T14:43:16;20;19;
62054;PMS5003;48653;51.742;-1.256;2023-06-14T14:45:42;16;16;
62054;PMS5003;48653;51.742;-1.256;2023-06-14T14:48:07;18;18;
62054;PMS5003;48653;51.742;-1.256;2023-06-14T14:50:32;22;20;
62054;PMS5003;48653;51.742;-1.256;2023-06-14T14:52:57;18;17;
62054;PMS5003;48653;51.742;-1.256;2023-06-14T14:55:22;18;17;
62054;PMS5003;48653;51.742;-1.256;2023-06-14T14:57:47;20;19;
62054;PMS5003;48653;51.742;-1.256;2023-06-14T15:00:13;16;16;
62054;PMS5003;48653;51.742;-1.256;2023-06-14T15:02:38;19;19;
62054;PMS5003;48653;51.742;-1.256;2023-06-14T15:05:04;16;16;
62054;PMS5003;48653;51.742;-1.256;2023-06-14T15:07:30;22;20;
62054;PMS5003;48653;51.742;-1.256;2023-06-14T15:09:55;18;17;
62054;PMS5003;48653;51.742;-1.256;2023-06-14T15:12:20;18;18;
62054;PMS5003;48653;51.742;-1.256;2023-06-14T15:14:46;20;20;
62054;PMS5003;48653;51.742;-1.256;2023-06-14T15:17:11;18;18;
62054;PMS5003;48653;51.742;-1.256;2023-06-14T15:19:37;16;16;
62054;PMS5003;48653;51.742;-1.256;2023-06-14T15:22:02;21;18;
62054;PMS5003;48653;51.742;-1.256;2023-06-14T15:24:27;18;18;
62054;PMS5003;48653;51.742;-1.256;2023-06-14T15:26:52;20;19;
62054;PMS5003;48653;51.742;-1.256;2023-06-14T15:29:18;20;19;
62054;PMS5003;48653;51.742;-1.256;2023-06-14T15:31:44;18;18;
62054;PMS5003;48653;51.742;-1.256;2023-06-14T15:34:09;18;18;
62054;PMS5003;48653;51.742;-1.256;2023-06-14T15:36:34;17;16;
62054;PMS5003;48653;51.742;-1.256;2023-06-14T15:38:59;24;20;
62054;PMS5003;48653;51.742;-1.256;2023-06-14T15:41:24;16;16;
62054;PMS5003;48653;51.742;-1.256;2023-06-14T15:43:50;20;18;
62054;PMS5003;48653;51.742;-1.256;2023-06-14T15:46:16;19;17;
62054;PMS5003;48653;51.742;-1.256;2023-06-14T15:48:41;19;18;
62054;PMS5003;48653;51.742;-1.256;2023-06-14T15:51:07;18;18;
62054;PMS5003;48653;51.742;-1.256;2023-06-14T15:53:32;16;16;
62054;PMS5003;48653;51.742;-1.256;2023-06-14T15:55:58;20;17;
62054;PMS5003;48653;51.742;-1.256;2023-06-14T15:58:23;22;20;
62054;PMS5003;48653;51.742;-1.256;2023-06-14T16:00:49;19;17;
62054;PMS5003;48653;51.742;-1.256;2023-06-14T16:03:14;20;20;
62054;PMS5003;48653;51.742;-1.256;2023-06-14T16:05:40;18;17;
62054;PMS5003;48653;51.742;-1.256;2023-06-14T16:08:05;19;19;